Time;durP1;ratioP1;P1;durP2;ratioP2;P2;SDS_P1;SDS_P2;PMS_P1;PMS_P2;Temp;Humidity;BMP_temperature;BMP_pressure;BME280_temperature;BME280_humidity;BME280_pressure;Samples;Min_cycle;Max_cycle;Signal;HPM_P1;HPM_P2
2024/04/08 00:00:00;;;;;;;7.6;3.1;;;;;;;;;;;;;
2024/04/08 00:02:25;;;;;;;9.3;3.1;;;;;;;;;;;;;
2024/04/08 00:04:50;;;;;;;12.3;3;;;;;;;;;;;;;
2024/04/08 00:07:15;;;;;;;13.2;3.1;;;;;;;;;;;;;
2024/04/08 00:09:40;;;;;;;9.6;2.8;;;;;;;;;;;;;
2024/04/08 00:12:05;;;;;;;8.7;2.7;;;;;;;;;;;;;
2024/04/08 00:14:30;;;;;;;11.8;2.6;;;;;;;;;;;;;
2024/04/08 00:16:55;;;;;;;10.7;3.2;;;;;;;;;;;;;
2024/04/08 00:19:20;;;;;;;10.1;2.9;;;;;;;;;;;;;
2024/04/08 00:21:45;;;;;;;10;2.7;;;;;;;;;;;;;
2024/04/08 00:24:11;;;;;;;10.6;3;;;;;;;;;;;;;
2024/04/08 00:26:36;;;;;;;9.6;2.4;;;;;;;;;;;;;
2024/04/08 00:29:01;;;;;;;9.1;2.8;;;;;;;;;;;;;
2024/04/08 00:31:26;;;;;;;10.6;2.8;;;;;;;;;;;;;
2024/04/08 00:33:51;;;;;;;6.3;2.9;;;;;;;;;;;;;
2024/04/08 00:36:16;;;;;;;7.9;2.7;;;;;;;;;;;;;
2024/04/08 00:38:41;;;;;;;12;3;;;;;;;;;;;;;
2024/04/08 00:41:07;;;;;;;10.1;3.1;;;;;;;;;;;;;
2024/04/08 00:43:32;;;;;;;9.4;2.7;;;;;;;;;;;;;
2024/04/08 00:45:57;;;;;;;10;2.8;;;;;;;;;;;;;
2024/04/08 00:48:22;;;;;;;10.2;3.1;;;;;;;;;;;;;
2024/04/08 00:50:49;;;;;;;10;2.5;;;;;;;;;;;;;
2024/04/08 00:53:12;;;;;;;11.6;3.1;;;;;;;;;;;;;
2024/04/08 00:55:37;;;;;;;8.7;2.6;;;;;;;;;;;;;
2024/04/08 00:58:02;;;;;;;9.2;2.6;;;;;;;;;;;;;
2024/04/08 01:00:28;;;;;;;8;2.7;;;;;;;;;;;;;
2024/04/08 01:02:53;;;;;;;9;2.8;;;;;;;;;;;;;
2024/04/08 01:05:18;;;;;;;11;3.1;;;;;;;;;;;;;
2024/04/08 01:07:43;;;;;;;9.2;2.8;;;;;;;;;;;;;
2024/04/08 01:10:08;;;;;;;13.3;3;;;;;;;;;;;;;
2024/04/08 01:12:33;;;;;;;10.1;2.9;;;;;;;;;;;;;
2024/04/08 01:14:58;;;;;;;8.5;2.7;;;;;;;;;;;;;
2024/04/08 01:17:24;;;;;;;8.7;2.6;;;;;;;;;;;;;
2024/04/08 01:19:49;;;;;;;9;2.8;;;;;;;;;;;;;
2024/04/08 01:22:14;;;;;;;11.9;3.1;;;;;;;;;;;;;
2024/04/08 01:24:39;;;;;;;7.1;2.5;;;;;;;;;;;;;
2024/04/08 01:27:04;;;;;;;10.9;2.8;;;;;;;;;;;;;
2024/04/08 01:29:30;;;;;;;8.5;2.2;;;;;;;;;;;;;
2024/04/08 01:31:54;;;;;;;11.3;2.8;;;;;;;;;;;;;
2024/04/08 01:34:20;;;;;;;13;2.8;;;;;;;;;;;;;
2024/04/08 01:36:45;;;;;;;7.9;2.3;;;;;;;;;;;;;
2024/04/08 01:39:10;;;;;;;14.5;3.3;;;;;;;;;;;;;
2024/04/08 01:41:35;;;;;;;7.9;2.3;;;;;;;;;;;;;
2024/04/08 01:44:00;;;;;;;10.3;2.7;;;;;;;;;;;;;
2024/04/08 01:46:25;;;;;;;12.5;2.6;;;;;;;;;;;;;
2024/04/08 01:48:50;;;;;;;12.5;2.9;;;;;;;;;;;;;
2024/04/08 01:51:16;;;;;;;8.6;2.4;;;;;;;;;;;;;
2024/04/08 01:53:41;;;;;;;9.1;2.5;;;;;;;;;;;;;
2024/04/08 01:56:06;;;;;;;10;3;;;;;;;;;;;;;
2024/04/08 01:58:31;;;;;;;10.8;3.1;;;;;;;;;;;;;
2024/04/08 02:00:56;;;;;;;9.1;2.7;;;;;;;;;;;;;
2024/04/08 02:03:21;;;;;;;13.1;2.9;;;;;;;;;;;;;
2024/04/08 02:05:46;;;;;;;8.8;2.6;;;;;;;;;;;;;
2024/04/08 02:08:12;;;;;;;13.8;2.8;;;;;;;;;;;;;
2024/04/08 02:10:37;;;;;;;10.2;2.9;;;;;;;;;;;;;
2024/04/08 02:13:02;;;;;;;11.4;2.5;;;;;;;;;;;;;
2024/04/08 02:15:27;;;;;;;11.6;2.7;;;;;;;;;;;;;
2024/04/08 02:17:53;;;;;;;11.1;3;;;;;;;;;;;;;
2024/04/08 02:20:18;;;;;;;11.3;3;;;;;;;;;;;;;
2024/04/08 02:22:43;;;;;;;8.3;2.7;;;;;;;;;;;;;
2024/04/08 02:25:08;;;;;;;10;2.3;;;;;;;;;;;;;
2024/04/08 02:27:33;;;;;;;12.8;2.7;;;;;;;;;;;;;
2024/04/08 02:29:58;;;;;;;9.6;2.6;;;;;;;;;;;;;
2024/04/08 02:32:23;;;;;;;9.6;3.1;;;;;;;;;;;;;
2024/04/08 02:34:48;;;;;;;12;2.6;;;;;;;;;;;;;
2024/04/08 02:37:13;;;;;;;13.7;2.9;;;;;;;;;;;;;
2024/04/08 02:39:38;;;;;;;11.7;3.6;;;;;;;;;;;;;
2024/04/08 02:42:06;;;;;;;13.9;3.6;;;;;;;;;;;;;
2024/04/08 02:44:29;;;;;;;13.2;3.4;;;;;;;;;;;;;
2024/04/08 02:46:54;;;;;;;14.6;3.4;;;;;;;;;;;;;
2024/04/08 02:49:19;;;;;;;10.5;2.9;;;;;;;;;;;;;
2024/04/08 02:51:44;;;;;;;13.3;3;;;;;;;;;;;;;
2024/04/08 02:54:09;;;;;;;14.5;3.4;;;;;;;;;;;;;
2024/04/08 02:56:35;;;;;;;16.4;3.5;;;;;;;;;;;;;
2024/04/08 02:58:59;;;;;;;10;3;;;;;;;;;;;;;
2024/04/08 03:01:24;;;;;;;12.1;3;;;;;;;;;;;;;
2024/04/08 03:03:50;;;;;;;17.1;3.4;;;;;;;;;;;;;
2024/04/08 03:06:15;;;;;;;11.1;3.6;;;;;;;;;;;;;
2024/04/08 03:08:40;;;;;;;14.6;3.6;;;;;;;;;;;;;
2024/04/08 03:11:05;;;;;;;18;4.4;;;;;;;;;;;;;
2024/04/08 03:13:30;;;;;;;15.2;4;;;;;;;;;;;;;
2024/04/08 03:15:55;;;;;;;17.6;3.9;;;;;;;;;;;;;
2024/04/08 03:18:20;;;;;;;18.2;4.1;;;;;;;;;;;;;
2024/04/08 03:20:45;;;;;;;19.2;3.7;;;;;;;;;;;;;
2024/04/08 03:23:10;;;;;;;16.3;3.8;;;;;;;;;;;;;
2024/04/08 03:25:36;;;;;;;17.5;3.6;;;;;;;;;;;;;
2024/04/08 03:28:01;;;;;;;12.2;3;;;;;;;;;;;;;
2024/04/08 03:30:26;;;;;;;13.6;3.3;;;;;;;;;;;;;
2024/04/08 03:32:51;;;;;;;17.4;3.8;;;;;;;;;;;;;
2024/04/08 03:35:16;;;;;;;13.8;3.8;;;;;;;;;;;;;
2024/04/08 03:37:41;;;;;;;12.6;3.4;;;;;;;;;;;;;
2024/04/08 03:40:07;;;;;;;16.5;3.3;;;;;;;;;;;;;
2024/04/08 03:42:31;;;;;;;17.1;3.6;;;;;;;;;;;;;
2024/04/08 03:44:56;;;;;;;16.5;3.7;;;;;;;;;;;;;
2024/04/08 03:47:21;;;;;;;13.7;4;;;;;;;;;;;;;
2024/04/08 03:49:47;;;;;;;20.6;4.2;;;;;;;;;;;;;
2024/04/08 03:52:12;;;;;;;17.7;3.5;;;;;;;;;;;;;
2024/04/08 03:54:37;;;;;;;17.7;3.9;;;;;;;;;;;;;
2024/04/08 03:57:02;;;;;;;23.8;4.5;;;;;;;;;;;;;
2024/04/08 03:59:27;;;;;;;19.2;4.4;;;;;;;;;;;;;
2024/04/08 04:02:31;;;;;;;18.5;3.9;;;;;;;;;;;;;
2024/04/08 04:04:56;;;;;;;17.5;4.5;;;;;;;;;;;;;
2024/04/08 04:07:21;;;;;;;20.1;4.9;;;;;;;;;;;;;
2024/04/08 04:09:46;;;;;;;17.6;4.3;;;;;;;;;;;;;
2024/04/08 04:12:11;;;;;;;18.1;4.4;;;;;;;;;;;;;
2024/04/08 04:14:36;;;;;;;19;4.4;;;;;;;;;;;;;
2024/04/08 04:17:02;;;;;;;23.4;5;;;;;;;;;;;;;
2024/04/08 04:19:27;;;;;;;18.3;4.5;;;;;;;;;;;;;
2024/04/08 04:21:53;;;;;;;20;4.1;;;;;;;;;;;;;
2024/04/08 04:24:17;;;;;;;14.3;3.9;;;;;;;;;;;;;
2024/04/08 04:26:42;;;;;;;26;7.2;;;;;;;;;;;;;
2024/04/08 04:29:07;;;;;;;46.3;9.4;;;;;;;;;;;;;
2024/04/08 04:31:32;;;;;;;44.4;11.4;;;;;;;;;;;;;
2024/04/08 04:33:57;;;;;;;20.9;5;;;;;;;;;;;;;
2024/04/08 04:36:22;;;;;;;20.3;4.5;;;;;;;;;;;;;
2024/04/08 04:38:48;;;;;;;19.3;4.4;;;;;;;;;;;;;
2024/04/08 04:41:16;;;;;;;21.5;4.1;;;;;;;;;;;;;
2024/04/08 04:43:38;;;;;;;22.9;4.8;;;;;;;;;;;;;
2024/04/08 04:46:03;;;;;;;23.8;7.6;;;;;;;;;;;;;
2024/04/08 04:48:28;;;;;;;22.5;4.9;;;;;;;;;;;;;
2024/04/08 04:50:53;;;;;;;15.3;3.9;;;;;;;;;;;;;
2024/04/08 04:53:18;;;;;;;20.1;4.3;;;;;;;;;;;;;
2024/04/08 04:55:43;;;;;;;17.2;3.8;;;;;;;;;;;;;
2024/04/08 04:58:09;;;;;;;16.7;4.4;;;;;;;;;;;;;
2024/04/08 05:00:34;;;;;;;28.8;5.2;;;;;;;;;;;;;
2024/04/08 05:02:59;;;;;;;19.2;4.6;;;;;;;;;;;;;
2024/04/08 05:05:24;;;;;;;21.9;4.7;;;;;;;;;;;;;
2024/04/08 05:07:49;;;;;;;16.5;4.5;;;;;;;;;;;;;
2024/04/08 05:10:14;;;;;;;18.3;3.9;;;;;;;;;;;;;
2024/04/08 05:12:39;;;;;;;18.5;4.9;;;;;;;;;;;;;
2024/04/08 05:15:04;;;;;;;21.7;4.8;;;;;;;;;;;;;
2024/04/08 05:17:29;;;;;;;21.6;4.7;;;;;;;;;;;;;
2024/04/08 05:19:55;;;;;;;23.7;5.2;;;;;;;;;;;;;
2024/04/08 05:22:20;;;;;;;26.4;5.8;;;;;;;;;;;;;
2024/04/08 05:24:45;;;;;;;29.7;5.7;;;;;;;;;;;;;
2024/04/08 05:27:10;;;;;;;25.2;5.5;;;;;;;;;;;;;
2024/04/08 05:29:35;;;;;;;25.4;5.3;;;;;;;;;;;;;
2024/04/08 05:32:00;;;;;;;21.8;5.3;;;;;;;;;;;;;
2024/04/08 05:34:26;;;;;;;29.1;5.9;;;;;;;;;;;;;
2024/04/08 05:36:50;;;;;;;26.6;6.2;;;;;;;;;;;;;
2024/04/08 05:39:16;;;;;;;32.4;6.4;;;;;;;;;;;;;
2024/04/08 05:41:41;;;;;;;31.1;5.9;;;;;;;;;;;;;
2024/04/08 05:44:06;;;;;;;28.7;6.1;;;;;;;;;;;;;
2024/04/08 05:46:31;;;;;;;84.2;17.7;;;;;;;;;;;;;
2024/04/08 05:48:57;;;;;;;23.3;6.9;;;;;;;;;;;;;
2024/04/08 05:51:25;;;;;;;33;6.1;;;;;;;;;;;;;
2024/04/08 05:53:47;;;;;;;20.8;5.8;;;;;;;;;;;;;
2024/04/08 05:56:12;;;;;;;18.1;4.3;;;;;;;;;;;;;
2024/04/08 05:58:37;;;;;;;20.5;4.7;;;;;;;;;;;;;
2024/04/08 06:01:02;;;;;;;24.9;4.8;;;;;;;;;;;;;
2024/04/08 06:03:27;;;;;;;25.7;5;;;;;;;;;;;;;
2024/04/08 06:05:52;;;;;;;21;4.8;;;;;;;;;;;;;
2024/04/08 06:08:17;;;;;;;20.2;3.7;;;;;;;;;;;;;
2024/04/08 06:10:50;;;;;;;20.8;4.8;;;;;;;;;;;;;
2024/04/08 06:13:07;;;;;;;23.6;4.9;;;;;;;;;;;;;
2024/04/08 06:15:33;;;;;;;24;4.7;;;;;;;;;;;;;
2024/04/08 06:17:58;;;;;;;23.3;4.7;;;;;;;;;;;;;
2024/04/08 06:20:23;;;;;;;18.7;4.2;;;;;;;;;;;;;
2024/04/08 06:22:48;;;;;;;20.2;4.4;;;;;;;;;;;;;
2024/04/08 06:25:13;;;;;;;17.1;4.5;;;;;;;;;;;;;
2024/04/08 06:27:38;;;;;;;27.6;4.5;;;;;;;;;;;;;
2024/04/08 06:30:03;;;;;;;18.5;4.4;;;;;;;;;;;;;
2024/04/08 06:32:28;;;;;;;22.8;4.9;;;;;;;;;;;;;
2024/04/08 06:34:53;;;;;;;23.3;5.3;;;;;;;;;;;;;
2024/04/08 06:37:18;;;;;;;22.1;4.8;;;;;;;;;;;;;
2024/04/08 06:39:44;;;;;;;25.1;5;;;;;;;;;;;;;
2024/04/08 06:42:09;;;;;;;18.8;4;;;;;;;;;;;;;
2024/04/08 06:44:34;;;;;;;21.4;4.4;;;;;;;;;;;;;
2024/04/08 06:47:00;;;;;;;25.6;4.2;;;;;;;;;;;;;
2024/04/08 06:49:24;;;;;;;21.8;4.8;;;;;;;;;;;;;
2024/04/08 06:51:50;;;;;;;22.7;5;;;;;;;;;;;;;
2024/04/08 06:54:14;;;;;;;28.9;5.2;;;;;;;;;;;;;
2024/04/08 06:56:40;;;;;;;23.6;4.7;;;;;;;;;;;;;
2024/04/08 06:59:05;;;;;;;23.9;5;;;;;;;;;;;;;
2024/04/08 07:01:33;;;;;;;24.1;4.9;;;;;;;;;;;;;
2024/04/08 07:03:57;;;;;;;25.1;5.4;;;;;;;;;;;;;
2024/04/08 07:06:23;;;;;;;22.7;4.8;;;;;;;;;;;;;
2024/04/08 07:08:47;;;;;;;25.7;4.9;;;;;;;;;;;;;
2024/04/08 07:11:13;;;;;;;25.7;4.9;;;;;;;;;;;;;
2024/04/08 07:13:38;;;;;;;21.4;4.6;;;;;;;;;;;;;
2024/04/08 07:16:03;;;;;;;27.5;6.1;;;;;;;;;;;;;
2024/04/08 07:18:28;;;;;;;29.9;5.3;;;;;;;;;;;;;
2024/04/08 07:20:53;;;;;;;35.8;5.1;;;;;;;;;;;;;
2024/04/08 07:23:18;;;;;;;21.5;4.6;;;;;;;;;;;;;
2024/04/08 07:25:44;;;;;;;21.8;5;;;;;;;;;;;;;
2024/04/08 07:28:08;;;;;;;20.4;4.8;;;;;;;;;;;;;
2024/04/08 07:30:33;;;;;;;20.7;4.4;;;;;;;;;;;;;
2024/04/08 07:32:59;;;;;;;22.9;4.6;;;;;;;;;;;;;
2024/04/08 07:35:23;;;;;;;26.6;4.9;;;;;;;;;;;;;
2024/04/08 07:37:49;;;;;;;22.9;4.6;;;;;;;;;;;;;
2024/04/08 07:40:14;;;;;;;23;4.6;;;;;;;;;;;;;
2024/04/08 07:42:39;;;;;;;22.2;4.9;;;;;;;;;;;;;
2024/04/08 07:45:04;;;;;;;19.3;5.3;;;;;;;;;;;;;
2024/04/08 07:47:29;;;;;;;21.8;5.2;;;;;;;;;;;;;
2024/04/08 07:49:56;;;;;;;29.2;5.8;;;;;;;;;;;;;
2024/04/08 07:52:19;;;;;;;26.5;5.2;;;;;;;;;;;;;
2024/04/08 07:54:45;;;;;;;27.1;4.6;;;;;;;;;;;;;
2024/04/08 07:57:11;;;;;;;29.9;4.9;;;;;;;;;;;;;
2024/04/08 07:59:36;;;;;;;31.1;5.1;;;;;;;;;;;;;
2024/04/08 08:02:00;;;;;;;27.9;5.5;;;;;;;;;;;;;
2024/04/08 08:04:25;;;;;;;19.8;4.7;;;;;;;;;;;;;
2024/04/08 08:06:50;;;;;;;21.5;4.5;;;;;;;;;;;;;
2024/04/08 08:09:16;;;;;;;19;4;;;;;;;;;;;;;
2024/04/08 08:11:41;;;;;;;23.9;4.6;;;;;;;;;;;;;
2024/04/08 08:14:06;;;;;;;15.6;3.3;;;;;;;;;;;;;
2024/04/08 08:16:31;;;;;;;19.6;4.4;;;;;;;;;;;;;
2024/04/08 08:18:56;;;;;;;17.1;3.8;;;;;;;;;;;;;
2024/04/08 08:21:21;;;;;;;14.3;3.6;;;;;;;;;;;;;
2024/04/08 08:23:46;;;;;;;16.4;3.7;;;;;;;;;;;;;
2024/04/08 08:26:11;;;;;;;22.8;4.6;;;;;;;;;;;;;
2024/04/08 08:28:36;;;;;;;20.2;4.7;;;;;;;;;;;;;
2024/04/08 08:31:01;;;;;;;25.5;4.4;;;;;;;;;;;;;
2024/04/08 08:33:27;;;;;;;26.2;5.7;;;;;;;;;;;;;
2024/04/08 08:35:52;;;;;;;19.9;4.2;;;;;;;;;;;;;
2024/04/08 08:38:17;;;;;;;21.8;4.3;;;;;;;;;;;;;
2024/04/08 08:40:42;;;;;;;32.4;5.2;;;;;;;;;;;;;
2024/04/08 08:43:07;;;;;;;20.6;4.1;;;;;;;;;;;;;
2024/04/08 08:45:32;;;;;;;18.3;3.6;;;;;;;;;;;;;
2024/04/08 08:47:58;;;;;;;17.7;3.9;;;;;;;;;;;;;
2024/04/08 08:50:22;;;;;;;18.2;4.7;;;;;;;;;;;;;
2024/04/08 08:52:47;;;;;;;20.6;4.6;;;;;;;;;;;;;
2024/04/08 08:55:13;;;;;;;21.2;3.9;;;;;;;;;;;;;
2024/04/08 08:57:38;;;;;;;22.6;4.1;;;;;;;;;;;;;
2024/04/08 09:00:03;;;;;;;17.9;4.3;;;;;;;;;;;;;
2024/04/08 09:02:28;;;;;;;25.6;4.2;;;;;;;;;;;;;
2024/04/08 09:04:53;;;;;;;24.6;4.8;;;;;;;;;;;;;
2024/04/08 09:07:18;;;;;;;23.1;3.7;;;;;;;;;;;;;
2024/04/08 09:09:43;;;;;;;18.7;3.9;;;;;;;;;;;;;
2024/04/08 09:12:08;;;;;;;23.3;4.9;;;;;;;;;;;;;
2024/04/08 09:14:33;;;;;;;22.6;4.7;;;;;;;;;;;;;
2024/04/08 09:16:58;;;;;;;20.3;4.1;;;;;;;;;;;;;
2024/04/08 09:19:23;;;;;;;21.3;4.6;;;;;;;;;;;;;
2024/04/08 09:21:48;;;;;;;25;4.5;;;;;;;;;;;;;
2024/04/08 09:24:14;;;;;;;27.7;4.5;;;;;;;;;;;;;
2024/04/08 09:26:40;;;;;;;24.5;4.6;;;;;;;;;;;;;
2024/04/08 09:29:04;;;;;;;20.3;5.3;;;;;;;;;;;;;
2024/04/08 09:31:29;;;;;;;21.1;4.6;;;;;;;;;;;;;
2024/04/08 09:33:54;;;;;;;24.6;4.2;;;;;;;;;;;;;
2024/04/08 09:36:19;;;;;;;23.5;4.8;;;;;;;;;;;;;
2024/04/08 09:38:44;;;;;;;31.4;5.2;;;;;;;;;;;;;
2024/04/08 09:41:09;;;;;;;28.2;4.3;;;;;;;;;;;;;
2024/04/08 09:43:34;;;;;;;31.3;4.6;;;;;;;;;;;;;
2024/04/08 09:46:00;;;;;;;29.5;5.3;;;;;;;;;;;;;
2024/04/08 09:48:25;;;;;;;21.3;4.5;;;;;;;;;;;;;
2024/04/08 09:50:50;;;;;;;23.8;5.6;;;;;;;;;;;;;
2024/04/08 09:53:15;;;;;;;29.4;5.5;;;;;;;;;;;;;
2024/04/08 09:55:40;;;;;;;28;4.8;;;;;;;;;;;;;
2024/04/08 09:58:05;;;;;;;23.9;5;;;;;;;;;;;;;
2024/04/08 10:00:30;;;;;;;21.6;4.6;;;;;;;;;;;;;
2024/04/08 10:02:58;;;;;;;29.4;5.8;;;;;;;;;;;;;
2024/04/08 10:05:23;;;;;;;28.4;4.9;;;;;;;;;;;;;
2024/04/08 10:07:48;;;;;;;32.1;4.9;;;;;;;;;;;;;
2024/04/08 10:10:13;;;;;;;28.6;5.2;;;;;;;;;;;;;
2024/04/08 10:12:38;;;;;;;28.7;5.1;;;;;;;;;;;;;
2024/04/08 10:15:03;;;;;;;31.5;5.5;;;;;;;;;;;;;
2024/04/08 10:17:28;;;;;;;28.8;5.3;;;;;;;;;;;;;
2024/04/08 10:19:54;;;;;;;22.3;4.8;;;;;;;;;;;;;
2024/04/08 10:22:19;;;;;;;28.7;5.3;;;;;;;;;;;;;
2024/04/08 10:24:44;;;;;;;32.9;5.7;;;;;;;;;;;;;
2024/04/08 10:27:11;;;;;;;32.1;5.9;;;;;;;;;;;;;
2024/04/08 10:29:35;;;;;;;22.9;4.7;;;;;;;;;;;;;
2024/04/08 10:31:59;;;;;;;30.6;5.6;;;;;;;;;;;;;
2024/04/08 10:34:24;;;;;;;27.3;5.7;;;;;;;;;;;;;
2024/04/08 10:36:49;;;;;;;28.5;5.1;;;;;;;;;;;;;
2024/04/08 10:39:14;;;;;;;25.9;4.4;;;;;;;;;;;;;
2024/04/08 10:41:39;;;;;;;28.2;5.9;;;;;;;;;;;;;
2024/04/08 10:44:04;;;;;;;52;16.1;;;;;;;;;;;;;
2024/04/08 10:46:30;;;;;;;36.8;6.2;;;;;;;;;;;;;
2024/04/08 10:48:55;;;;;;;38.1;7.6;;;;;;;;;;;;;
2024/04/08 10:51:20;;;;;;;29.5;7;;;;;;;;;;;;;
2024/04/08 10:53:45;;;;;;;31.4;5.7;;;;;;;;;;;;;
2024/04/08 10:56:10;;;;;;;33.8;6.4;;;;;;;;;;;;;
2024/04/08 10:58:35;;;;;;;28.9;5.2;;;;;;;;;;;;;
2024/04/08 11:01:00;;;;;;;20.9;5.6;;;;;;;;;;;;;
2024/04/08 11:03:25;;;;;;;29.1;5.5;;;;;;;;;;;;;
2024/04/08 11:05:51;;;;;;;24.1;5.1;;;;;;;;;;;;;
2024/04/08 11:08:16;;;;;;;29.2;5.4;;;;;;;;;;;;;
2024/04/08 11:10:41;;;;;;;21.8;4.3;;;;;;;;;;;;;
2024/04/08 11:13:06;;;;;;;22.2;4.3;;;;;;;;;;;;;
2024/04/08 11:15:31;;;;;;;34.1;5.6;;;;;;;;;;;;;
2024/04/08 11:17:56;;;;;;;28.4;5.6;;;;;;;;;;;;;
2024/04/08 11:20:21;;;;;;;27.3;5.3;;;;;;;;;;;;;
2024/04/08 11:22:46;;;;;;;24.6;4.5;;;;;;;;;;;;;
2024/04/08 11:25:12;;;;;;;30.8;5.3;;;;;;;;;;;;;
2024/04/08 11:27:38;;;;;;;18.7;4.9;;;;;;;;;;;;;
2024/04/08 11:30:02;;;;;;;29.7;4.9;;;;;;;;;;;;;
2024/04/08 11:32:27;;;;;;;24.2;4.1;;;;;;;;;;;;;
2024/04/08 11:34:52;;;;;;;24.9;4.8;;;;;;;;;;;;;
2024/04/08 11:37:17;;;;;;;25.2;4.7;;;;;;;;;;;;;
2024/04/08 11:39:42;;;;;;;24.7;5.1;;;;;;;;;;;;;
2024/04/08 11:42:07;;;;;;;21.8;4.3;;;;;;;;;;;;;
2024/04/08 11:44:32;;;;;;;22.9;4.9;;;;;;;;;;;;;
2024/04/08 11:46:58;;;;;;;25.1;4.7;;;;;;;;;;;;;
2024/04/08 11:49:23;;;;;;;24.6;5.3;;;;;;;;;;;;;
2024/04/08 11:51:48;;;;;;;21.4;4.5;;;;;;;;;;;;;
2024/04/08 11:54:15;;;;;;;18.6;4.7;;;;;;;;;;;;;
2024/04/08 11:56:38;;;;;;;20.5;4.8;;;;;;;;;;;;;
2024/04/08 11:59:04;;;;;;;21.2;5;;;;;;;;;;;;;
2024/04/08 12:01:29;;;;;;;26.9;4.1;;;;;;;;;;;;;
2024/04/08 12:03:54;;;;;;;28.4;5.3;;;;;;;;;;;;;
2024/04/08 12:06:19;;;;;;;19.5;4.5;;;;;;;;;;;;;
2024/04/08 12:08:44;;;;;;;22.5;4.4;;;;;;;;;;;;;
2024/04/08 12:11:10;;;;;;;22.1;3.9;;;;;;;;;;;;;
2024/04/08 12:13:34;;;;;;;21.3;4.8;;;;;;;;;;;;;
2024/04/08 12:15:59;;;;;;;22.1;4.6;;;;;;;;;;;;;
2024/04/08 12:18:25;;;;;;;31.5;5.2;;;;;;;;;;;;;
2024/04/08 12:20:49;;;;;;;21.4;4.3;;;;;;;;;;;;;
2024/04/08 12:23:15;;;;;;;22.4;4.9;;;;;;;;;;;;;
2024/04/08 12:25:40;;;;;;;21.3;4.6;;;;;;;;;;;;;
2024/04/08 12:28:05;;;;;;;29.5;5.5;;;;;;;;;;;;;
2024/04/08 12:30:30;;;;;;;24.6;5;;;;;;;;;;;;;
2024/04/08 12:32:55;;;;;;;24.2;4.1;;;;;;;;;;;;;
2024/04/08 12:35:20;;;;;;;30.1;5.5;;;;;;;;;;;;;
2024/04/08 12:37:45;;;;;;;20;3.9;;;;;;;;;;;;;
2024/04/08 12:40:10;;;;;;;19.4;4.9;;;;;;;;;;;;;
2024/04/08 12:42:35;;;;;;;24.1;4.5;;;;;;;;;;;;;
2024/04/08 12:45:00;;;;;;;25.1;4.8;;;;;;;;;;;;;
2024/04/08 12:47:26;;;;;;;22.9;4.6;;;;;;;;;;;;;
2024/04/08 12:49:51;;;;;;;21.2;4.3;;;;;;;;;;;;;
2024/04/08 12:52:17;;;;;;;25.1;5.2;;;;;;;;;;;;;
2024/04/08 12:54:41;;;;;;;19.9;4.9;;;;;;;;;;;;;
2024/04/08 12:57:07;;;;;;;26.9;5.7;;;;;;;;;;;;;
2024/04/08 12:59:31;;;;;;;25.7;5.6;;;;;;;;;;;;;
2024/04/08 13:01:56;;;;;;;23.9;4.5;;;;;;;;;;;;;
2024/04/08 13:04:21;;;;;;;20.6;5.9;;;;;;;;;;;;;
2024/04/08 13:06:47;;;;;;;29.6;5.1;;;;;;;;;;;;;
2024/04/08 13:09:12;;;;;;;17.6;5.1;;;;;;;;;;;;;
2024/04/08 13:11:37;;;;;;;26;5.7;;;;;;;;;;;;;
2024/04/08 13:14:04;;;;;;;25;4.8;;;;;;;;;;;;;
2024/04/08 13:16:27;;;;;;;26.5;5.5;;;;;;;;;;;;;
2024/04/08 13:18:52;;;;;;;23.7;5.5;;;;;;;;;;;;;
2024/04/08 13:21:17;;;;;;;25;5.1;;;;;;;;;;;;;
2024/04/08 13:23:42;;;;;;;28.6;5.5;;;;;;;;;;;;;
2024/04/08 13:26:07;;;;;;;21.4;4.1;;;;;;;;;;;;;
2024/04/08 13:28:32;;;;;;;22.5;4;;;;;;;;;;;;;
2024/04/08 13:30:58;;;;;;;32.4;5;;;;;;;;;;;;;
2024/04/08 13:33:23;;;;;;;22;4.5;;;;;;;;;;;;;
2024/04/08 13:35:48;;;;;;;32.9;5.1;;;;;;;;;;;;;
2024/04/08 13:38:13;;;;;;;22.4;4.9;;;;;;;;;;;;;
2024/04/08 13:40:38;;;;;;;27.1;5.1;;;;;;;;;;;;;
2024/04/08 13:43:03;;;;;;;29.2;5.2;;;;;;;;;;;;;
2024/04/08 13:45:28;;;;;;;22.8;4.9;;;;;;;;;;;;;
2024/04/08 13:47:54;;;;;;;17.7;4.3;;;;;;;;;;;;;
2024/04/08 13:50:19;;;;;;;20.3;4.4;;;;;;;;;;;;;
2024/04/08 13:52:44;;;;;;;24.6;4.3;;;;;;;;;;;;;
2024/04/08 13:55:11;;;;;;;18.3;4.2;;;;;;;;;;;;;
2024/04/08 13:57:36;;;;;;;23.3;4.7;;;;;;;;;;;;;
2024/04/08 14:00:00;;;;;;;16.5;3.7;;;;;;;;;;;;;
2024/04/08 14:02:25;;;;;;;21.5;4.6;;;;;;;;;;;;;
2024/04/08 14:04:49;;;;;;;21.9;5;;;;;;;;;;;;;
2024/04/08 14:07:15;;;;;;;21.9;4;;;;;;;;;;;;;
2024/04/08 14:09:40;;;;;;;26.9;4.5;;;;;;;;;;;;;
2024/04/08 14:12:05;;;;;;;26.2;4.2;;;;;;;;;;;;;
2024/04/08 14:14:30;;;;;;;21;4.6;;;;;;;;;;;;;
2024/04/08 14:16:55;;;;;;;22.1;4.6;;;;;;;;;;;;;
2024/04/08 14:19:20;;;;;;;21.5;4.4;;;;;;;;;;;;;
2024/04/08 14:22:31;;;;;;;30.6;5.9;;;;;;;;;;;;;
2024/04/08 14:24:57;;;;;;;26.9;5;;;;;;;;;;;;;
2024/04/08 14:27:22;;;;;;;27.1;5.5;;;;;;;;;;;;;
2024/04/08 14:29:46;;;;;;;23.7;5.1;;;;;;;;;;;;;
2024/04/08 14:32:12;;;;;;;21.5;4.9;;;;;;;;;;;;;
2024/04/08 14:34:37;;;;;;;28.7;5.4;;;;;;;;;;;;;
2024/04/08 14:37:02;;;;;;;29.4;4.7;;;;;;;;;;;;;
2024/04/08 14:39:27;;;;;;;28.3;4.5;;;;;;;;;;;;;
2024/04/08 14:41:52;;;;;;;27.7;5.5;;;;;;;;;;;;;
2024/04/08 14:44:17;;;;;;;23.1;5.1;;;;;;;;;;;;;
2024/04/08 14:46:42;;;;;;;23.7;4.9;;;;;;;;;;;;;
2024/04/08 14:49:07;;;;;;;20.6;5.3;;;;;;;;;;;;;
2024/04/08 14:51:32;;;;;;;21.9;5.4;;;;;;;;;;;;;
2024/04/08 14:53:57;;;;;;;26;5.1;;;;;;;;;;;;;
2024/04/08 14:56:22;;;;;;;20;4.2;;;;;;;;;;;;;
2024/04/08 14:58:48;;;;;;;27.4;5.7;;;;;;;;;;;;;
2024/04/08 15:01:13;;;;;;;23.7;5.3;;;;;;;;;;;;;
2024/04/08 15:03:39;;;;;;;20.5;4.5;;;;;;;;;;;;;
2024/04/08 15:06:03;;;;;;;21;4.5;;;;;;;;;;;;;
2024/04/08 15:08:28;;;;;;;18.7;4;;;;;;;;;;;;;
2024/04/08 15:10:54;;;;;;;27;4.7;;;;;;;;;;;;;
2024/04/08 15:13:18;;;;;;;23.7;4.6;;;;;;;;;;;;;
2024/04/08 15:15:45;;;;;;;25.2;4.7;;;;;;;;;;;;;
2024/04/08 15:18:09;;;;;;;24.3;5.8;;;;;;;;;;;;;
2024/04/08 15:20:34;;;;;;;25.4;4.9;;;;;;;;;;;;;
2024/04/08 15:22:59;;;;;;;28.2;6.1;;;;;;;;;;;;;
2024/04/08 15:25:24;;;;;;;24.2;4.6;;;;;;;;;;;;;
2024/04/08 15:27:50;;;;;;;25.9;4.9;;;;;;;;;;;;;
2024/04/08 15:30:14;;;;;;;22.9;4.6;;;;;;;;;;;;;
2024/04/08 15:32:39;;;;;;;31.2;5.8;;;;;;;;;;;;;
2024/04/08 15:35:04;;;;;;;24;4.4;;;;;;;;;;;;;
2024/04/08 15:37:30;;;;;;;20.5;5;;;;;;;;;;;;;
2024/04/08 15:39:55;;;;;;;25;4.9;;;;;;;;;;;;;
2024/04/08 15:42:20;;;;;;;18.9;3.8;;;;;;;;;;;;;
2024/04/08 15:44:45;;;;;;;24.7;4.3;;;;;;;;;;;;;
2024/04/08 15:47:11;;;;;;;20.6;4.1;;;;;;;;;;;;;
2024/04/08 15:49:35;;;;;;;20.2;4.4;;;;;;;;;;;;;
2024/04/08 15:52:01;;;;;;;19.4;4.5;;;;;;;;;;;;;
2024/04/08 15:54:26;;;;;;;24.5;5.5;;;;;;;;;;;;;
2024/04/08 15:56:51;;;;;;;25.7;5.1;;;;;;;;;;;;;
2024/04/08 15:59:16;;;;;;;19.9;4.4;;;;;;;;;;;;;
2024/04/08 16:01:41;;;;;;;19.9;4.5;;;;;;;;;;;;;
2024/04/08 16:04:06;;;;;;;18.8;5.1;;;;;;;;;;;;;
2024/04/08 16:06:31;;;;;;;23.4;5.1;;;;;;;;;;;;;
2024/04/08 16:08:56;;;;;;;25;4.4;;;;;;;;;;;;;
2024/04/08 16:11:21;;;;;;;32.8;5.6;;;;;;;;;;;;;
2024/04/08 16:13:46;;;;;;;21.2;4.6;;;;;;;;;;;;;
2024/04/08 16:16:11;;;;;;;22.2;4.9;;;;;;;;;;;;;
2024/04/08 16:18:36;;;;;;;20.6;5.1;;;;;;;;;;;;;
2024/04/08 16:21:02;;;;;;;19;4.4;;;;;;;;;;;;;
2024/04/08 16:23:27;;;;;;;21.2;4.9;;;;;;;;;;;;;
2024/04/08 16:25:52;;;;;;;17.7;4.6;;;;;;;;;;;;;
2024/04/08 16:28:17;;;;;;;22;4.9;;;;;;;;;;;;;
2024/04/08 16:30:42;;;;;;;20.7;5;;;;;;;;;;;;;
2024/04/08 16:33:07;;;;;;;20.6;4.5;;;;;;;;;;;;;
2024/04/08 16:35:32;;;;;;;18.4;4.3;;;;;;;;;;;;;
2024/04/08 16:37:57;;;;;;;19.7;4;;;;;;;;;;;;;
2024/04/08 16:40:22;;;;;;;22.4;4.3;;;;;;;;;;;;;
2024/04/08 16:42:48;;;;;;;21;3.8;;;;;;;;;;;;;
2024/04/08 16:45:13;;;;;;;21.8;4.5;;;;;;;;;;;;;
2024/04/08 16:47:38;;;;;;;19.6;4.6;;;;;;;;;;;;;
2024/04/08 16:50:03;;;;;;;24.3;4.1;;;;;;;;;;;;;
2024/04/08 16:52:28;;;;;;;15.4;3.8;;;;;;;;;;;;;
2024/04/08 16:54:53;;;;;;;22.2;4.7;;;;;;;;;;;;;
2024/04/08 16:57:18;;;;;;;17.7;4.1;;;;;;;;;;;;;
2024/04/08 16:59:43;;;;;;;20.2;4.5;;;;;;;;;;;;;
2024/04/08 17:02:08;;;;;;;17.9;4.6;;;;;;;;;;;;;
2024/04/08 17:04:34;;;;;;;23.2;4.5;;;;;;;;;;;;;
2024/04/08 17:06:59;;;;;;;24.3;3.6;;;;;;;;;;;;;
2024/04/08 17:09:26;;;;;;;26.5;4.3;;;;;;;;;;;;;
2024/04/08 17:11:49;;;;;;;18.5;3.7;;;;;;;;;;;;;
2024/04/08 17:14:14;;;;;;;20.4;4.1;;;;;;;;;;;;;
2024/04/08 17:16:39;;;;;;;19.1;4.6;;;;;;;;;;;;;
2024/04/08 17:19:05;;;;;;;21;3.8;;;;;;;;;;;;;
2024/04/08 17:21:30;;;;;;;17.3;4.2;;;;;;;;;;;;;
2024/04/08 17:23:55;;;;;;;20.9;4;;;;;;;;;;;;;
2024/04/08 17:26:21;;;;;;;17.6;3.7;;;;;;;;;;;;;
2024/04/08 17:28:45;;;;;;;21.8;4;;;;;;;;;;;;;
2024/04/08 17:31:10;;;;;;;18;3.8;;;;;;;;;;;;;
2024/04/08 17:33:35;;;;;;;15.9;3.7;;;;;;;;;;;;;
2024/04/08 17:36:01;;;;;;;19;4;;;;;;;;;;;;;
2024/04/08 17:38:26;;;;;;;23.2;4.1;;;;;;;;;;;;;
2024/04/08 17:40:51;;;;;;;19.4;3.7;;;;;;;;;;;;;
2024/04/08 17:43:16;;;;;;;14.2;3.3;;;;;;;;;;;;;
2024/04/08 17:45:41;;;;;;;14.2;3;;;;;;;;;;;;;
2024/04/08 17:48:06;;;;;;;12.8;3.2;;;;;;;;;;;;;
2024/04/08 17:50:31;;;;;;;14;3.2;;;;;;;;;;;;;
2024/04/08 17:52:56;;;;;;;19.6;4.6;;;;;;;;;;;;;
2024/04/08 17:55:22;;;;;;;19.5;4.1;;;;;;;;;;;;;
2024/04/08 17:57:46;;;;;;;13.6;3.3;;;;;;;;;;;;;
2024/04/08 18:00:12;;;;;;;12.1;3.7;;;;;;;;;;;;;
2024/04/08 18:02:37;;;;;;;17.2;4.3;;;;;;;;;;;;;
2024/04/08 18:05:02;;;;;;;22.2;4.4;;;;;;;;;;;;;
2024/04/08 18:07:27;;;;;;;19.8;5.1;;;;;;;;;;;;;
2024/04/08 18:09:52;;;;;;;17.8;4.3;;;;;;;;;;;;;
2024/04/08 18:12:17;;;;;;;14.5;3.9;;;;;;;;;;;;;
2024/04/08 18:14:42;;;;;;;25.5;6.4;;;;;;;;;;;;;
2024/04/08 18:17:08;;;;;;;15;4;;;;;;;;;;;;;
2024/04/08 18:19:33;;;;;;;20.1;4.4;;;;;;;;;;;;;
2024/04/08 18:21:58;;;;;;;17.2;3.7;;;;;;;;;;;;;
2024/04/08 18:24:23;;;;;;;22.1;4.4;;;;;;;;;;;;;
2024/04/08 18:26:48;;;;;;;18.4;4.5;;;;;;;;;;;;;
2024/04/08 18:29:14;;;;;;;16.9;3.6;;;;;;;;;;;;;
2024/04/08 18:31:39;;;;;;;16.5;3.9;;;;;;;;;;;;;
2024/04/08 18:34:04;;;;;;;16.5;3.1;;;;;;;;;;;;;
2024/04/08 18:36:31;;;;;;;15.6;3.6;;;;;;;;;;;;;
2024/04/08 18:38:54;;;;;;;17.1;4.2;;;;;;;;;;;;;
2024/04/08 18:41:20;;;;;;;13.2;3.8;;;;;;;;;;;;;
2024/04/08 18:43:44;;;;;;;18.7;4.3;;;;;;;;;;;;;
2024/04/08 18:46:09;;;;;;;17.3;4.3;;;;;;;;;;;;;
2024/04/08 18:48:34;;;;;;;19.1;4;;;;;;;;;;;;;
2024/04/08 18:50:59;;;;;;;22.5;4.3;;;;;;;;;;;;;
2024/04/08 18:53:24;;;;;;;15.4;4.1;;;;;;;;;;;;;
2024/04/08 18:55:51;;;;;;;25;5.4;;;;;;;;;;;;;
2024/04/08 18:58:15;;;;;;;21;4.9;;;;;;;;;;;;;
2024/04/08 19:02:34;;;;;;;20.9;4.3;;;;;;;;;;;;;
2024/04/08 19:04:59;;;;;;;17.8;5;;;;;;;;;;;;;
2024/04/08 19:07:24;;;;;;;22.3;5.4;;;;;;;;;;;;;
2024/04/08 19:09:50;;;;;;;18.9;4.6;;;;;;;;;;;;;
2024/04/08 19:12:15;;;;;;;15.2;4.7;;;;;;;;;;;;;
2024/04/08 19:14:41;;;;;;;17.7;4.4;;;;;;;;;;;;;
2024/04/08 19:17:05;;;;;;;28.4;5;;;;;;;;;;;;;
2024/04/08 19:19:31;;;;;;;21.3;4.5;;;;;;;;;;;;;
2024/04/08 19:22:00;;;;;;;18.8;4.7;;;;;;;;;;;;;
2024/04/08 19:24:22;;;;;;;23.3;4.5;;;;;;;;;;;;;
2024/04/08 19:26:46;;;;;;;29.9;5.5;;;;;;;;;;;;;
2024/04/08 19:29:11;;;;;;;24.3;4.9;;;;;;;;;;;;;
2024/04/08 19:31:36;;;;;;;22.1;5.2;;;;;;;;;;;;;
2024/04/08 19:34:02;;;;;;;22.4;4.8;;;;;;;;;;;;;
2024/04/08 19:36:28;;;;;;;17.2;4;;;;;;;;;;;;;
2024/04/08 19:38:52;;;;;;;18.4;4.4;;;;;;;;;;;;;
2024/04/08 19:41:19;;;;;;;21.7;4.9;;;;;;;;;;;;;
2024/04/08 19:43:43;;;;;;;25.8;6;;;;;;;;;;;;;
2024/04/08 19:46:07;;;;;;;19;4.6;;;;;;;;;;;;;
2024/04/08 19:48:32;;;;;;;21.9;5.5;;;;;;;;;;;;;
2024/04/08 19:50:58;;;;;;;19.1;5.6;;;;;;;;;;;;;
2024/04/08 19:53:23;;;;;;;18.4;4.7;;;;;;;;;;;;;
2024/04/08 19:55:48;;;;;;;21.5;4.4;;;;;;;;;;;;;
2024/04/08 19:58:13;;;;;;;19.8;4;;;;;;;;;;;;;
2024/04/08 20:00:38;;;;;;;19.9;4.2;;;;;;;;;;;;;
2024/04/08 20:03:03;;;;;;;19.3;4.5;;;;;;;;;;;;;
2024/04/08 20:05:29;;;;;;;20.1;5;;;;;;;;;;;;;
2024/04/08 20:07:54;;;;;;;24.3;5.1;;;;;;;;;;;;;
2024/04/08 20:10:19;;;;;;;19;4.4;;;;;;;;;;;;;